Time;durP1;ratioP1;P1;durP2;ratioP2;P2;SDS_P1;SDS_P2;PMS_P1;PMS_P2;Temp;Humidity;BMP_temperature;BMP_pressure;BME280_temperature;BME280_humidity;BME280_pressure;Samples;Min_cycle;Max_cycle;Signal;HPM_P1;HPM_P2
2023/07/27 00:02:27;;;;;;;8.27;7.47;;;;;;;21.71;77.75;94028.81;5078937;28;20197;-44
2023/07/27 00:04:54;;;;;;;9.00;8.10;;;;;;;21.72;78.29;94027.03;5090164;28;20190;-44
2023/07/27 00:07:21;;;;;;;8.50;7.80;;;;;;;21.72;78.63;94037.44;5089996;28;20186;-44
2023/07/27 00:09:48;;;;;;;8.82;7.93;;;;;;;21.72;78.43;94037.44;5089241;28;20665;-44
2023/07/27 00:12:15;;;;;;;10.93;7.32;;;;;;;21.72;78.38;94045.25;5089881;28;20216;-44
2023/07/27 00:14:41;;;;;;;7.82;7.13;;;;;;;21.60;78.13;94045.22;5090048;28;20936;-43
2023/07/27 00:17:08;;;;;;;6.93;6.22;;;;;;;21.52;77.41;94041.09;5089954;28;20618;-43
2023/07/27 00:19:36;;;;;;;6.43;5.82;;;;;;;21.39;77.25;94030.88;5089773;28;20194;-44
2023/07/27 00:22:03;;;;;;;7.63;6.28;;;;;;;21.34;77.01;94028.16;5089948;28;20214;-44
2023/07/27 00:24:30;;;;;;;9.82;6.05;;;;;;;21.28;76.72;94029.78;5090048;28;20193;-45
2023/07/27 00:26:57;;;;;;;5.78;5.28;;;;;;;21.30;76.17;94030.38;5089807;28;20242;-43
2023/07/27 00:29:24;;;;;;;5.35;4.85;;;;;;;21.21;75.57;94020.50;5089495;28;20210;-42
2023/07/27 00:31:51;;;;;;;4.93;4.53;;;;;;;21.17;75.24;94027.94;5090158;28;20645;-43
2023/07/27 00:34:17;;;;;;;7.03;4.43;;;;;;;21.05;74.18;94014.06;5089434;28;20204;-40
2023/07/27 00:36:46;;;;;;;5.07;4.00;;;;;;;20.99;74.62;94030.56;5089749;28;20556;-42
2023/07/27 00:39:12;;;;;;;5.40;3.88;;;;;;;20.87;74.92;94016.69;5089800;28;20186;-43
2023/07/27 00:41:40;;;;;;;5.28;4.47;;;;;;;20.41;75.02;93953.00;5089602;28;20661;-43
2023/07/27 00:44:06;;;;;;;4.93;4.43;;;;;;;20.87;74.99;94025.28;5089562;28;20641;-42
2023/07/27 00:46:35;;;;;;;4.13;3.83;;;;;;;20.80;75.13;94027.94;5089755;28;20197;-41
2023/07/27 00:49:02;;;;;;;4.57;4.18;;;;;;;20.74;75.19;94021.03;5089321;28;20217;-41
2023/07/27 00:51:35;;;;;;;4.32;3.92;;;;;;;20.73;74.99;94022.03;5089729;28;20208;-43
2023/07/27 00:54:03;;;;;;;5.30;4.43;;;;;;;20.43;74.90;93987.38;5089562;28;20189;-42
2023/07/27 00:56:31;;;;;;;4.57;4.03;;;;;;;20.57;75.33;94021.81;5089585;28;20201;-42
2023/07/27 00:59:00;;;;;;;6.20;4.15;;;;;;;20.50;75.00;94027.88;5089584;28;20190;-42
2023/07/27 01:01:28;;;;;;;5.32;3.72;;;;;;;20.46;75.01;94024.06;5089657;28;20683;-43
2023/07/27 01:03:55;;;;;;;4.47;3.70;;;;;;;20.41;75.03;94017.94;5089860;28;20182;-42
2023/07/27 01:06:22;;;;;;;3.80;3.50;;;;;;;20.38;74.82;94019.19;5089300;28;20188;-42
2023/07/27 01:08:49;;;;;;;6.50;3.33;;;;;;;20.34;74.69;94027.63;5089368;28;20206;-44
2023/07/27 01:11:24;;;;;;;4.10;3.13;;;;;;;20.36;74.14;94028.97;5089522;28;20202;-42
2023/07/27 01:14:01;;;;;;;3.27;2.70;;;;;;;20.30;74.02;94025.44;5089476;28;20193;-41
2023/07/27 01:16:35;;;;;;;3.67;2.83;;;;;;;20.33;73.98;94033.78;5089191;28;20189;-43
2023/07/27 01:19:17;;;;;;;4.73;3.00;;;;;;;20.24;74.08;94028.88;5089283;28;20200;-41
2023/07/27 01:21:55;;;;;;;4.50;2.40;;;;;;;20.19;74.22;94025.34;5092012;28;20186;-43
2023/07/27 01:24:57;;;;;;;2.87;2.67;;;;;;;20.17;73.57;94035.16;5093178;28;20653;-42
2023/07/27 01:27:42;;;;;;;3.57;2.30;;;;;;;20.09;73.60;94032.81;5050361;28;20706;-42
2023/07/27 01:30:34;;;;;;;4.37;2.77;;;;;;;19.96;73.61;94041.50;5050439;28;20235;-42
2023/07/27 01:33:06;;;;;;;2.30;2.10;;;;;;;19.88;73.71;94037.38;5030175;28;20776;-41
2023/07/27 01:35:39;;;;;;;2.47;2.27;;;;;;;19.73;73.76;94029.91;5050712;28;20199;-41
2023/07/27 01:38:07;;;;;;;3.30;2.37;;;;;;;19.39;73.91;93968.84;5050204;28;20752;-40
2023/07/27 01:40:35;;;;;;;2.30;2.20;;;;;;;19.77;74.30;94036.25;5050355;28;20195;-41
2023/07/27 01:43:03;;;;;;;2.50;2.30;;;;;;;19.89;73.99;94040.75;5050020;28;20199;-42
2023/07/27 01:45:30;;;;;;;4.83;2.37;;;;;;;19.72;74.21;94027.50;5050942;28;20195;-45
2023/07/27 01:47:58;;;;;;;2.63;2.43;;;;;;;19.84;74.30;94043.19;5050951;28;20202;-43
2023/07/27 01:50:28;;;;;;;2.47;2.30;;;;;;;19.83;74.39;94041.59;5050250;28;20214;-42
2023/07/27 01:52:57;;;;;;;3.10;2.90;;;;;;;19.85;74.47;94036.97;5050009;28;20199;-42
2023/07/27 01:55:24;;;;;;;2.80;2.60;;;;;;;19.83;74.56;94047.59;5050048;28;20671;-42
2023/07/27 01:57:53;;;;;;;3.30;2.70;;;;;;;19.86;74.67;94047.16;5049883;28;20195;-43
2023/07/27 02:00:20;;;;;;;2.93;2.73;;;;;;;19.85;74.61;94053.34;5050065;28;20194;-42
2023/07/27 02:02:47;;;;;;;2.77;2.57;;;;;;;19.79;74.87;94065.38;5049825;28;20183;-42
2023/07/27 02:05:15;;;;;;;3.93;3.40;;;;;;;19.85;74.87;94071.50;5087108;28;20201;-42
2023/07/27 02:07:43;;;;;;;3.27;3.07;;;;;;;19.80;74.87;94076.53;5092414;28;20272;-41
2023/07/27 02:10:14;;;;;;;6.47;3.70;;;;;;;19.80;75.02;94089.50;5092604;28;20210;-42
2023/07/27 02:12:45;;;;;;;3.37;3.13;;;;;;;19.76;74.91;94080.56;5092394;28;20558;-42
2023/07/27 02:15:18;;;;;;;3.90;3.60;;;;;;;19.77;75.07;94087.31;5092482;28;20196;-41
2023/07/27 02:17:49;;;;;;;3.73;3.43;;;;;;;19.80;74.89;94084.31;5092262;28;20201;-43
2023/07/27 02:20:16;;;;;;;4.07;3.60;;;;;;;19.82;74.98;94092.72;5092635;28;20553;-41
2023/07/27 02:22:47;;;;;;;4.93;4.43;;;;;;;19.84;75.11;94095.09;5092524;28;20306;-42
2023/07/27 02:25:14;;;;;;;4.77;4.47;;;;;;;19.82;74.91;94099.66;5092362;28;20197;-42
2023/07/27 02:27:44;;;;;;;4.70;4.30;;;;;;;19.85;75.12;94099.25;5092312;28;20273;-41
2023/07/27 02:30:11;;;;;;;4.97;4.57;;;;;;;19.84;75.04;94098.47;5092067;28;20237;-42
2023/07/27 02:32:38;;;;;;;5.63;5.23;;;;;;;19.84;74.95;94102.88;5091183;28;20292;-44
2023/07/27 02:35:05;;;;;;;5.20;4.80;;;;;;;19.87;74.85;94102.47;5091718;28;20190;-40
2023/07/27 02:37:32;;;;;;;6.27;5.67;;;;;;;19.89;74.71;94118.59;5092476;28;20190;-41
2023/07/27 02:40:00;;;;;;;5.50;5.00;;;;;;;19.86;74.58;94119.84;5092089;28;20182;-40
2023/07/27 02:42:27;;;;;;;5.37;4.97;;;;;;;19.86;74.66;94119.00;5091942;28;20197;-40
2023/07/27 02:44:53;;;;;;;5.53;5.13;;;;;;;19.87;74.61;94115.44;5091892;28;20207;-41
2023/07/27 02:47:20;;;;;;;6.03;5.00;;;;;;;19.89;74.68;94123.78;5092103;28;20189;-42
2023/07/27 02:49:47;;;;;;;5.63;5.17;;;;;;;19.94;74.23;94127.34;5091616;28;20275;-41
2023/07/27 02:52:14;;;;;;;5.83;5.33;;;;;;;19.85;73.82;94128.59;5092074;28;20193;-41
2023/07/27 02:54:41;;;;;;;6.07;5.47;;;;;;;19.82;73.82;94134.22;5091608;28;20182;-40
2023/07/27 02:57:09;;;;;;;6.00;5.40;;;;;;;19.88;73.40;94146.34;5091783;28;20198;-41
2023/07/27 02:59:35;;;;;;;5.63;5.20;;;;;;;19.87;73.10;94156.97;5091707;28;20577;-41
2023/07/27 03:02:02;;;;;;;6.63;5.13;;;;;;;19.84;72.95;94158.16;5091536;28;20558;-41
2023/07/27 03:04:29;;;;;;;5.80;5.30;;;;;;;19.85;72.62;94156.34;5091606;28;20182;-41
2023/07/27 03:06:56;;;;;;;5.97;5.07;;;;;;;19.88;72.30;94163.72;5091430;28;20193;-41
2023/07/27 03:09:24;;;;;;;5.33;4.83;;;;;;;19.90;71.72;94162.50;5091305;28;20213;-41
2023/07/27 03:11:51;;;;;;;5.40;4.90;;;;;;;19.89;70.98;94176.47;5091335;28;20193;-41
2023/07/27 03:14:19;;;;;;;6.27;5.77;;;;;;;19.90;70.75;94182.47;5091693;28;20190;-42
2023/07/27 03:16:45;;;;;;;5.30;4.90;;;;;;;19.80;70.74;94175.94;5091384;28;20242;-42
2023/07/27 03:19:12;;;;;;;5.20;4.80;;;;;;;19.82;70.26;94182.72;5091254;28;20193;-42
2023/07/27 03:21:40;;;;;;;5.50;5.10;;;;;;;19.77;70.34;94175.53;5091330;28;20186;-41
2023/07/27 03:24:07;;;;;;;5.87;5.07;;;;;;;19.77;70.02;94178.13;5091440;28;20564;-43
2023/07/27 03:26:33;;;;;;;5.50;5.00;;;;;;;19.72;69.73;94175.38;5091022;28;20194;-42
2023/07/27 03:29:00;;;;;;;5.47;4.97;;;;;;;19.63;69.77;94166.25;5091143;28;20270;-44
2023/07/27 03:31:28;;;;;;;4.77;4.40;;;;;;;19.71;69.04;94184.16;5090468;28;20233;-41
2023/07/27 03:33:55;;;;;;;5.87;5.27;;;;;;;19.76;68.68;94179.16;5091097;28;20568;-42
2023/07/27 03:36:22;;;;;;;6.80;4.80;;;;;;;19.75;68.43;94177.56;5090625;28;20196;-41
2023/07/27 03:38:49;;;;;;;5.37;4.97;;;;;;;19.63;68.59;94185.19;5091218;28;20196;-42
2023/07/27 03:41:16;;;;;;;4.83;4.40;;;;;;;19.08;68.57;94108.75;5090652;28;20190;-42
2023/07/27 03:43:43;;;;;;;5.97;4.90;;;;;;;19.55;67.34;94190.56;5090467;28;20204;-41
2023/07/27 03:46:10;;;;;;;5.23;4.83;;;;;;;19.53;67.39;94193.38;5090690;28;20189;-41
2023/07/27 03:48:38;;;;;;;5.20;4.80;;;;;;;19.51;67.39;94199.75;5090868;28;20189;-44
2023/07/27 03:51:05;;;;;;;4.50;4.20;;;;;;;19.29;67.30;94174.09;5090922;28;20228;-42
2023/07/27 03:53:32;;;;;;;4.77;4.40;;;;;;;19.55;67.23;94198.34;5090733;28;20181;-41
2023/07/27 03:56:01;;;;;;;5.73;4.97;;;;;;;19.61;66.91;94204.56;5090714;28;20685;-44
2023/07/27 03:58:29;;;;;;;4.77;4.37;;;;;;;19.63;66.53;94216.31;5090542;28;20281;-43
2023/07/27 04:00:55;;;;;;;4.70;4.23;;;;;;;19.71;65.31;94213.50;5090963;28;20260;-43
2023/07/27 04:03:22;;;;;;;4.10;3.80;;;;;;;19.66;65.49;94210.72;5090169;28;20189;-44
2023/07/27 04:05:51;;;;;;;5.57;3.57;;;;;;;19.75;64.51;94222.47;5090558;28;20282;-43
2023/07/27 04:08:18;;;;;;;4.67;3.77;;;;;;;19.83;64.08;94210.28;5090160;28;20200;-42
2023/07/27 04:10:44;;;;;;;3.70;3.40;;;;;;;19.89;63.18;94218.00;5090198;28;20225;-42
2023/07/27 04:13:11;;;;;;;3.50;3.13;;;;;;;19.94;62.97;94225.97;5089918;28;20219;-42
2023/07/27 04:15:39;;;;;;;3.03;2.83;;;;;;;19.96;61.87;94231.75;5090292;28;20208;-42
2023/07/27 04:18:06;;;;;;;2.77;2.57;;;;;;;19.94;60.25;94228.56;5090150;28;20196;-43
2023/07/27 04:20:32;;;;;;;2.63;2.43;;;;;;;19.97;60.79;94235.94;5089976;28;20190;-44
2023/07/27 04:23:01;;;;;;;2.93;2.40;;;;;;;19.96;60.17;94243.94;5090046;28;20251;-43
2023/07/27 04:25:27;;;;;;;2.93;2.67;;;;;;;19.84;60.48;94251.56;5090105;28;20190;-42
2023/07/27 04:27:54;;;;;;;5.47;2.70;;;;;;;19.85;59.28;94265.34;5090055;28;20182;-42
2023/07/27 04:30:21;;;;;;;2.47;2.37;;;;;;;19.63;59.84;94264.81;5089532;28;20700;-42
2023/07/27 04:32:48;;;;;;;2.63;1.93;;;;;;;19.63;59.77;94275.19;5089894;28;20658;-43
2023/07/27 04:35:15;;;;;;;3.67;2.40;;;;;;;19.52;59.98;94290.34;5089553;28;20194;-42
2023/07/27 04:37:42;;;;;;;2.50;2.30;;;;;;;19.42;60.55;94284.75;5089786;28;20184;-44
2023/07/27 04:40:10;;;;;;;3.47;2.30;;;;;;;19.50;60.01;94294.13;5089373;28;20602;-40
2023/07/27 04:42:37;;;;;;;3.67;2.30;;;;;;;19.40;60.15;94296.34;5089626;28;20190;-41
2023/07/27 04:45:04;;;;;;;2.17;2.07;;;;;;;19.38;60.43;94291.34;5089614;28;20226;-42
2023/07/27 04:47:31;;;;;;;3.07;2.00;;;;;;;19.36;59.98;94295.97;5089985;28;20185;-43
2023/07/27 04:49:57;;;;;;;2.50;2.33;;;;;;;19.28;60.68;94299.53;5089884;28;20218;-42
2023/07/27 04:52:24;;;;;;;2.23;2.13;;;;;;;19.26;60.53;94298.16;5089747;28;20216;-43
2023/07/27 04:54:51;;;;;;;2.40;2.20;;;;;;;19.23;60.75;94298.56;5089098;28;20587;-43
2023/07/27 04:57:19;;;;;;;2.50;2.30;;;;;;;19.35;60.28;94296.16;5089268;28;20210;-42
2023/07/27 04:59:46;;;;;;;9.50;2.40;;;;;;;19.28;60.89;94298.75;5089643;28;20259;-42
2023/07/27 05:02:13;;;;;;;2.40;2.30;;;;;;;19.30;60.94;94297.56;5089227;28;20190;-43
2023/07/27 05:04:39;;;;;;;3.37;2.20;;;;;;;19.39;60.50;94300.75;5089732;28;20193;-43
2023/07/27 05:07:06;;;;;;;5.23;2.30;;;;;;;19.45;60.39;94301.72;5089323;28;20622;-43
2023/07/27 05:09:33;;;;;;;2.70;2.23;;;;;;;19.53;59.97;94306.72;5089676;28;20194;-42
2023/07/27 05:12:00;;;;;;;2.40;2.30;;;;;;;19.59;59.61;94311.06;5089233;28;20221;-42
2023/07/27 05:14:28;;;;;;;2.57;2.37;;;;;;;19.65;59.85;94312.13;5089824;28;20204;-42
2023/07/27 05:16:55;;;;;;;2.30;2.20;;;;;;;19.77;59.32;94315.66;5089459;28;20186;-44
2023/07/27 05:19:21;;;;;;;2.57;2.33;;;;;;;19.69;59.60;94311.50;5089363;28;20300;-44
2023/07/27 05:21:48;;;;;;;4.30;2.33;;;;;;;19.75;59.04;94321.06;5089114;28;20205;-43
2023/07/27 05:24:15;;;;;;;2.50;2.23;;;;;;;19.79;58.23;94322.25;5089201;28;20185;-43
2023/07/27 05:26:42;;;;;;;2.90;2.30;;;;;;;19.74;58.34;94332.44;5089236;28;20200;-43
2023/07/27 05:29:08;;;;;;;5.07;2.60;;;;;;;19.72;58.67;94336.22;5088955;28;20251;-43
2023/07/27 05:31:37;;;;;;;3.50;2.70;;;;;;;19.73;58.68;94335.22;5089242;28;20217;-42
2023/07/27 05:34:03;;;;;;;2.33;2.13;;;;;;;19.85;58.54;94336.19;5089151;28;20186;-42
2023/07/27 05:36:30;;;;;;;3.00;2.30;;;;;;;20.15;57.71;94340.91;5089206;28;20201;-43
2023/07/27 05:38:57;;;;;;;4.20;2.23;;;;;;;20.22;56.97;94342.50;5089252;28;20193;-42
2023/07/27 05:41:24;;;;;;;2.20;2.10;;;;;;;20.27;56.83;94344.47;5089036;28;20200;-44
2023/07/27 05:43:50;;;;;;;2.80;2.60;;;;;;;20.20;57.70;94351.47;5089033;28;20255;-43
2023/07/27 05:46:17;;;;;;;6.17;2.87;;;;;;;20.25;57.82;94344.69;5088706;28;20182;-43
2023/07/27 05:48:45;;;;;;;2.97;2.30;;;;;;;20.39;57.24;94350.63;5089165;28;20190;-43
2023/07/27 05:51:12;;;;;;;3.73;2.10;;;;;;;20.33;57.50;94348.03;5089101;28;20263;-42
2023/07/27 05:53:39;;;;;;;4.77;2.70;;;;;;;20.34;57.58;94360.03;5089216;28;20224;-43
2023/07/27 05:56:06;;;;;;;3.77;2.67;;;;;;;20.35;57.79;94359.81;5089585;28;20657;-43
2023/07/27 05:58:33;;;;;;;2.30;2.20;;;;;;;20.31;58.42;94361.22;5089165;28;20584;-42
2023/07/27 06:01:00;;;;;;;2.47;2.28;;;;;;;20.40;57.22;94378.19;5088884;28;20202;-43
2023/07/27 06:03:27;;;;;;;2.60;2.40;;;;;;;20.43;57.39;94375.19;5088755;28;20194;-43
2023/07/27 06:05:55;;;;;;;2.40;2.00;;;;;;;20.52;56.40;94370.56;5088900;28;20534;-42
2023/07/27 06:08:22;;;;;;;3.07;2.20;;;;;;;20.71;55.51;94372.25;5090870;28;20190;-42
2023/07/27 06:10:49;;;;;;;5.03;2.23;;;;;;;20.99;54.75;94369.31;5092217;28;20665;-43
2023/07/27 06:13:16;;;;;;;1.92;1.80;;;;;;;21.45;52.76;94365.59;5092338;28;20574;-43
2023/07/27 06:15:48;;;;;;;2.40;2.17;;;;;;;21.75;50.92;94367.56;5092083;28;20755;-42
2023/07/27 06:18:15;;;;;;;2.03;1.80;;;;;;;21.96;50.71;94371.56;5092415;28;20232;-44
2023/07/27 06:20:42;;;;;;;4.35;1.73;;;;;;;22.29;50.40;94366.03;5092121;28;20193;-43
2023/07/27 06:23:10;;;;;;;1.95;1.85;;;;;;;22.60;48.63;94359.84;5092252;28;20181;-43
2023/07/27 06:25:42;;;;;;;3.40;1.88;;;;;;;22.98;48.46;94361.38;5091792;28;20243;-42
2023/07/27 06:28:12;;;;;;;3.72;2.17;;;;;;;23.50;47.13;94365.00;5092246;28;20208;-42
2023/07/27 06:30:40;;;;;;;2.42;1.80;;;;;;;23.87;45.16;94372.63;5090914;28;20678;-43
2023/07/27 06:33:07;;;;;;;2.30;2.10;;;;;;;24.09;44.45;94370.22;5092143;28;20208;-43
2023/07/27 06:35:34;;;;;;;1.35;1.35;;;;;;;24.07;44.04;94314.81;5091770;28;20186;-43
2023/07/27 06:38:01;;;;;;;1.95;1.52;;;;;;;24.68;43.22;94367.50;5092193;28;20186;-44
2023/07/27 06:40:29;;;;;;;1.73;1.63;;;;;;;25.08;42.18;94367.47;5091372;28;20197;-43
2023/07/27 06:42:55;;;;;;;2.00;1.80;;;;;;;25.31;40.86;94373.63;5091734;28;20204;-43
2023/07/27 06:45:22;;;;;;;6.72;1.75;;;;;;;25.43;40.66;94375.16;5091949;28;20263;-42
2023/07/27 06:47:49;;;;;;;2.65;1.70;;;;;;;25.56;39.48;94376.66;5091700;28;20193;-44
2023/07/27 06:50:16;;;;;;;2.22;1.50;;;;;;;25.40;39.25;94364.34;5091576;28;20190;-45
2023/07/27 06:52:43;;;;;;;3.08;1.85;;;;;;;25.32;39.99;94352.44;5091356;28;20247;-44
2023/07/27 06:55:10;;;;;;;1.60;1.50;;;;;;;25.63;40.08;94348.47;5091658;28;20201;-42
2023/07/27 06:57:38;;;;;;;3.17;1.92;;;;;;;25.92;39.03;94351.00;5091396;28;20591;-44
2023/07/27 07:00:07;;;;;;;2.00;1.70;;;;;;;26.07;38.86;94347.78;5091817;28;20345;-42
2023/07/27 07:02:34;;;;;;;3.08;1.40;;;;;;;26.27;38.73;94345.44;5091180;28;20196;-43
2023/07/27 07:05:02;;;;;;;1.70;1.48;;;;;;;26.36;37.51;94336.09;5091844;28;20197;-44
2023/07/27 07:07:29;;;;;;;2.00;1.65;;;;;;;26.48;37.17;94338.63;5091976;28;20287;-43
2023/07/27 07:09:56;;;;;;;1.77;1.65;;;;;;;26.38;37.77;94346.34;5091337;28;20216;-43
2023/07/27 07:12:23;;;;;;;2.50;1.45;;;;;;;26.40;37.32;94354.75;5090643;28;20646;-43
2023/07/27 07:14:51;;;;;;;1.63;1.52;;;;;;;26.33;37.91;94349.69;5091230;28;20722;-42
2023/07/27 07:17:18;;;;;;;4.68;1.95;;;;;;;26.42;37.50;94352.66;5090807;28;20936;-45
2023/07/27 07:19:45;;;;;;;3.72;1.73;;;;;;;26.39;38.01;94340.84;5090741;28;20238;-43
2023/07/27 07:22:12;;;;;;;2.67;1.90;;;;;;;26.52;37.98;94358.09;5090952;28;20235;-42
2023/07/27 07:24:39;;;;;;;3.13;1.50;;;;;;;26.76;38.04;94356.75;5090795;28;20272;-43
2023/07/27 07:27:05;;;;;;;5.40;1.60;;;;;;;26.98;37.34;94348.84;5091159;28;20193;-44
2023/07/27 07:29:32;;;;;;;1.60;1.50;;;;;;;27.04;36.35;94341.81;5090674;28;20226;-44
2023/07/27 07:32:01;;;;;;;2.88;1.80;;;;;;;27.15;36.72;94338.28;5091026;28;20225;-43
2023/07/27 07:34:28;;;;;;;6.65;1.73;;;;;;;27.09;37.02;94349.78;5090490;28;20189;-43
2023/07/27 07:36:54;;;;;;;3.50;1.80;;;;;;;27.15;36.56;94345.34;5091371;28;20507;-44
2023/07/27 07:39:21;;;;;;;4.15;1.88;;;;;;;27.15;36.03;94334.84;5090431;28;20200;-44
2023/07/27 07:41:48;;;;;;;5.25;1.67;;;;;;;27.06;36.77;94341.56;5090661;28;20190;-43
2023/07/27 07:44:15;;;;;;;1.70;1.60;;;;;;;27.11;36.84;94334.56;5090886;28;20201;-44
2023/07/27 07:46:42;;;;;;;1.77;1.50;;;;;;;27.21;36.07;94337.28;5091120;28;20193;-44
2023/07/27 07:49:10;;;;;;;1.90;1.70;;;;;;;27.20;35.96;94340.13;5090419;28;20185;-45
2023/07/27 07:51:37;;;;;;;2.35;1.70;;;;;;;27.18;35.57;94329.91;5090514;28;20243;-42
2023/07/27 07:54:07;;;;;;;3.85;1.60;;;;;;;27.03;36.85;94340.25;5090340;28;20193;-42
2023/07/27 07:56:34;;;;;;;3.08;1.83;;;;;;;27.25;36.64;94340.22;5090416;28;20671;-42
2023/07/27 07:59:02;;;;;;;1.77;1.67;;;;;;;27.44;36.42;94349.28;5090441;28;20192;-44
2023/07/27 08:01:29;;;;;;;4.50;1.73;;;;;;;27.56;36.18;94348.31;5090657;28;20186;-44
2023/07/27 08:03:55;;;;;;;2.17;1.98;;;;;;;27.34;36.09;94348.41;5090768;28;20182;-44
2023/07/27 08:06:24;;;;;;;7.60;1.77;;;;;;;27.25;35.70;94354.13;5090802;28;20193;-43
2023/07/27 08:08:51;;;;;;;2.55;1.50;;;;;;;27.15;36.05;94358.47;5090453;28;20695;-43
2023/07/27 08:11:19;;;;;;;6.32;1.67;;;;;;;27.12;36.21;94361.63;5089832;28;20218;-43
2023/07/27 08:13:46;;;;;;;3.13;1.70;;;;;;;26.94;36.23;94360.09;5090351;28;20342;-43
2023/07/27 08:16:12;;;;;;;5.63;2.28;;;;;;;26.27;36.87;94287.75;5090409;28;20185;-43
2023/07/27 08:18:39;;;;;;;5.22;1.50;;;;;;;26.66;36.69;94351.41;5090316;28;20229;-43
2023/07/27 08:21:08;;;;;;;13.35;2.28;;;;;;;26.44;37.25;94354.06;5090188;28;20197;-44
2023/07/27 08:23:36;;;;;;;4.70;1.60;;;;;;;26.36;37.11;94364.94;5089839;28;20232;-43
2023/07/27 08:26:07;;;;;;;5.53;1.85;;;;;;;26.36;37.11;94357.06;5089681;28;20607;-44
2023/07/27 08:28:34;;;;;;;5.30;1.80;;;;;;;26.38;38.12;94362.88;5090126;28;20200;-43
2023/07/27 08:31:04;;;;;;;10.50;2.40;;;;;;;26.43;37.48;94352.44;5088586;28;20380;-43
2023/07/27 08:33:31;;;;;;;4.43;1.50;;;;;;;26.58;37.35;94353.69;5089983;28;20258;-43
2023/07/27 08:35:58;;;;;;;5.05;1.90;;;;;;;26.65;36.18;94354.28;5089567;28;20198;-45
2023/07/27 08:38:25;;;;;;;5.82;2.00;;;;;;;26.61;36.45;94358.44;5089560;28;20632;-42
2023/07/27 08:40:57;;;;;;;18.13;2.53;;;;;;;26.66;36.25;94369.78;5089604;28;20782;-43
2023/07/27 08:43:24;;;;;;;5.72;1.88;;;;;;;26.55;36.45;94372.53;5089866;28;20188;-44
2023/07/27 08:45:52;;;;;;;3.90;1.70;;;;;;;26.34;36.87;94361.78;5090009;28;20189;-43
2023/07/27 08:48:19;;;;;;;9.52;2.13;;;;;;;26.33;37.40;94356.75;5089720;28;20197;-43
2023/07/27 08:50:48;;;;;;;7.35;1.70;;;;;;;26.42;37.02;94366.56;5090037;28;20226;-41
2023/07/27 08:53:16;;;;;;;4.35;1.35;;;;;;;26.49;37.25;94376.94;5089900;28;20213;-43
2023/07/27 08:55:45;;;;;;;5.28;2.25;;;;;;;26.62;37.16;94370.50;5089877;28;20941;-43
2023/07/27 08:58:15;;;;;;;5.70;2.20;;;;;;;26.64;36.84;94369.25;5089910;28;20614;-43
2023/07/27 09:00:42;;;;;;;5.07;1.80;;;;;;;26.61;36.81;94374.97;5089909;28;20194;-42
2023/07/27 09:03:08;;;;;;;4.82;1.70;;;;;;;26.64;36.97;94369.25;5089867;28;20190;-44
2023/07/27 09:05:42;;;;;;;9.07;1.77;;;;;;;26.38;36.42;94355.00;5089575;28;20561;-43
2023/07/27 09:08:10;;;;;;;4.82;1.20;;;;;;;26.27;37.27;94372.44;5089029;28;20209;-43
2023/07/27 09:10:37;;;;;;;3.70;1.60;;;;;;;26.10;37.50;94352.56;5089348;28;20194;-41
2023/07/27 09:13:05;;;;;;;3.90;2.00;;;;;;;26.01;37.93;94360.03;5089197;28;20596;-41
2023/07/27 09:15:34;;;;;;;3.22;1.67;;;;;;;25.99;38.35;94375.19;5089421;28;20182;-42
2023/07/27 09:18:01;;;;;;;4.85;1.70;;;;;;;26.04;38.55;94367.44;5089333;28;20270;-41
2023/07/27 09:20:29;;;;;;;2.70;1.50;;;;;;;26.01;38.65;94365.28;5089172;28;20190;-41
2023/07/27 09:22:56;;;;;;;5.47;1.75;;;;;;;25.75;37.76;94314.31;5089253;28;20224;-44
2023/07/27 09:25:24;;;;;;;2.42;1.60;;;;;;;26.18;37.78;94375.72;5089418;28;20243;-42
2023/07/27 09:27:54;;;;;;;5.50;1.58;;;;;;;25.92;37.95;94377.22;5089318;28;20239;-43
2023/07/27 09:30:22;;;;;;;16.73;2.28;;;;;;;25.95;37.67;94387.19;5089516;28;20225;-42
2023/07/27 09:32:51;;;;;;;3.55;1.80;;;;;;;25.76;38.59;94392.69;5089162;28;20221;-43
2023/07/27 09:35:19;;;;;;;9.85;1.60;;;;;;;25.84;38.31;94388.88;5089650;28;20193;-41
2023/07/27 09:37:48;;;;;;;7.28;1.70;;;;;;;25.81;37.71;94397.22;5089448;28;20208;-42
2023/07/27 09:40:17;;;;;;;3.50;1.48;;;;;;;25.59;37.73;94393.69;5089426;28;20197;-42
2023/07/27 09:42:45;;;;;;;1.77;1.67;;;;;;;25.43;38.20;94393.47;5092077;28;20621;-42
2023/07/27 09:45:12;;;;;;;4.40;1.88;;;;;;;25.10;39.11;94385.56;5093101;28;20221;-42
2023/07/27 09:47:40;;;;;;;2.28;1.88;;;;;;;25.00;40.06;94373.09;5092785;28;20194;-42
2023/07/27 09:50:10;;;;;;;1.75;1.65;;;;;;;25.19;40.17;94392.81;5092927;28;20201;-42
2023/07/27 09:52:39;;;;;;;3.97;2.00;;;;;;;25.32;39.38;94396.94;5092726;28;20225;-42
2023/07/27 09:55:06;;;;;;;2.40;2.05;;;;;;;25.31;38.71;94369.19;5092605;28;20565;-43
2023/07/27 09:57:33;;;;;;;5.88;1.90;;;;;;;25.57;38.44;94388.72;5092870;28;20197;-46
2023/07/27 10:00:01;;;;;;;6.70;1.67;;;;;;;25.49;38.71;94392.50;5092904;28;20215;-44
2023/07/27 10:02:28;;;;;;;3.03;1.85;;;;;;;25.35;39.11;94391.25;5092505;28;20648;-43
2023/07/27 10:04:55;;;;;;;8.20;2.00;;;;;;;23.80;38.13;94159.66;5092353;28;20254;-45
2023/07/27 10:07:26;;;;;;;5.07;1.85;;;;;;;24.93;38.25;94360.13;5092711;28;20243;-44
2023/07/27 10:10:25;;;;;;;5.25;1.77;;;;;;;24.98;37.84;94394.22;5092630;28;20250;-43
2023/07/27 10:12:52;;;;;;;5.90;2.03;;;;;;;24.88;38.90;94382.81;5092302;28;20294;-45
2023/07/27 10:15:20;;;;;;;2.80;1.70;;;;;;;24.97;39.41;94386.63;5092309;28;20189;-44
2023/07/27 10:17:49;;;;;;;5.55;1.83;;;;;;;25.03;37.87;94385.69;5092440;28;20654;-43
2023/07/27 10:20:25;;;;;;;3.05;1.58;;;;;;;25.02;38.08;94381.47;5092335;28;20189;-45
2023/07/27 10:23:08;;;;;;;3.22;1.98;;;;;;;25.06;37.75;94363.50;5092273;28;20234;-41
2023/07/27 10:26:06;;;;;;;2.08;1.67;;;;;;;25.16;38.43;94364.47;5092043;28;20273;-52
2023/07/27 10:28:36;;;;;;;5.25;1.85;;;;;;;24.94;38.02;94319.06;5092006;28;20229;-45
2023/07/27 10:31:22;;;;;;;3.55;1.67;;;;;;;25.37;37.45;94362.19;5092028;28;20229;-45
2023/07/27 10:33:52;;;;;;;4.88;1.98;;;;;;;25.43;37.46;94377.75;5092160;28;20429;-43
2023/07/27 10:36:21;;;;;;;2.95;1.70;;;;;;;25.41;37.98;94379.03;5092320;28;20259;-42
2023/07/27 10:38:54;;;;;;;4.22;1.80;;;;;;;25.43;37.32;94383.00;5092274;28;20181;-45
2023/07/27 10:41:22;;;;;;;5.57;2.00;;;;;;;25.44;37.75;94375.94;5091912;28;20190;-45
2023/07/27 10:44:18;;;;;;;2.13;1.55;;;;;;;25.42;38.20;94384.00;5092180;28;20665;-42
2023/07/27 10:46:48;;;;;;;3.13;1.58;;;;;;;25.43;37.68;94369.91;5092372;28;20193;-45
2023/07/27 10:49:16;;;;;;;2.25;1.58;;;;;;;25.51;37.77;94379.97;5092467;28;20568;-43
2023/07/27 10:51:45;;;;;;;3.25;2.20;;;;;;;25.62;37.65;94369.66;5091304;28;20232;-43
2023/07/27 10:54:14;;;;;;;6.22;2.13;;;;;;;25.64;37.45;94380.69;5090892;28;20229;-44
2023/07/27 10:56:43;;;;;;;7.10;2.53;;;;;;;25.57;37.05;94380.06;5091240;28;20277;-43
2023/07/27 10:59:14;;;;;;;4.72;1.95;;;;;;;25.47;37.73;94372.81;5091946;28;20192;-44
2023/07/27 11:01:42;;;;;;;2.20;2.00;;;;;;;25.41;37.52;94361.47;5091639;28;20193;-44
2023/07/27 11:04:09;;;;;;;3.70;1.85;;;;;;;25.34;37.80;94354.81;5091830;28;20205;-44
2023/07/27 11:06:43;;;;;;;4.43;2.10;;;;;;;25.46;37.63;94358.94;5091497;28;20189;-45
2023/07/27 11:09:16;;;;;;;2.95;1.88;;;;;;;25.38;38.42;94341.00;5091678;28;20272;-43
2023/07/27 11:11:44;;;;;;;2.13;1.90;;;;;;;25.47;37.96;94349.25;5090897;28;20672;-42
2023/07/27 11:14:11;;;;;;;3.47;2.00;;;;;;;25.60;37.13;94359.41;5091490;28;20565;-45
2023/07/27 11:16:38;;;;;;;6.85;1.83;;;;;;;25.51;36.98;94345.91;5091281;28;20333;-44
2023/07/27 11:19:08;;;;;;;2.38;2.10;;;;;;;25.41;37.81;94353.63;5091390;28;20198;-43
2023/07/27 11:21:39;;;;;;;2.75;2.00;;;;;;;25.38;37.35;94348.88;5090989;28;20186;-43
2023/07/27 11:24:07;;;;;;;3.13;1.90;;;;;;;25.51;37.38;94350.38;5091217;28;20270;-45
2023/07/27 11:26:36;;;;;;;4.78;2.00;;;;;;;25.65;37.16;94348.25;5090991;28;20193;-43
2023/07/27 11:29:03;;;;;;;3.10;2.00;;;;;;;25.70;37.08;94346.47;5090977;28;20186;-45
2023/07/27 11:31:30;;;;;;;5.35;1.90;;;;;;;25.66;36.68;94357.69;5091069;28;20708;-44
2023/07/27 11:34:00;;;;;;;2.17;1.98;;;;;;;25.60;36.38;94353.38;5090653;28;20715;-43
2023/07/27 11:36:29;;;;;;;2.08;1.70;;;;;;;25.52;37.38;94351.97;5091075;28;20202;-43
2023/07/27 11:38:56;;;;;;;5.55;2.35;;;;;;;25.60;37.92;94342.91;5090735;28;20663;-43
2023/07/27 11:41:23;;;;;;;2.53;2.05;;;;;;;25.67;37.66;94336.47;5090702;28;20247;-45